Kezdőlap
METAR-TAF:

METAR-TAF

Repülőterek :

Kirkenes, Norvégia

földrajzi szélesség: 69-44N, földrajzi hosszúság: 029-54E, magasság: 9 m

Jelenlegi meteorológiai megfigyelések

A jelentés 29 perccel ezelõtt készült, 05:20 UTC
Nyugati szél 7 kt
Hőmérséklet 4°C
Páratartalom 87%
Légköri nyomás 1020 hPa
Látótávolság 10 km, vagy több
Kevés felhő 800 lábon
Szakadozott felhőzet 1900 lábon

METAR: ENKR 240520Z 26007KT 9999 FEW008 BKN019 04/02 Q1020 RMK WIND 731FT 26007KT

Idő: 07:49 (05:49 UTC)

Előrejelzés

A jelentés 49 perccel ezelõtt készült, 05:00 UTC
Az előrejelzés 24-én 06 óra UTC és 24-én 15 óra UTC között érvényes
Nyugat-északnyugati szél 5 kt
Látótávolság 10 km, vagy több
Kevés felhő 2000 lábon
Szórványos felhőzet 3500 lábon
Valószínűség 40% :
24-én 06 óra UTC és 24-én 09 óra UTC között ideiglenes
Szakadozott felhőzet 1200 lábon

TAF: ENKR 240500Z 2406/2415 30005KT 9999 FEW020 SCT035 PROB40 TEMPO 2406/2409 BKN012

Meteorológiai megfigyelések és előrejelzések több, mint 4000 repülőtéren (METAR és TAF jelentéseket).

A térképen piros és sárga pontok jelzik az elérhető meteorológiai állomásokat.

Mozgassa az egeret a pont fölött, hogy megjelenjen az állomás neve.

Azután kattintson az időjárási megfigyelések és előrejelzések megtekintéséhez.

A térkép megváltoztatása: kattintson a fekete keresztel jelölt zöld gombra ráközelítéshez, a vonallal jelölt zöld gombra távolításhoz, vagy a zöld nyilakra a szomszédos térképek eléréséhez.


METAR-TAF: